sensor_id;sensor_type;location;lat;lon;timestamp;pressure;altitude;pressure_sealevel;temperature;humidity
62849;BME280;48941;49.516;8.286;2023-12-22T00:01:27;99116.91;;;5.69;100.00
62849;BME280;48941;49.516;8.286;2023-12-22T00:03:56;99104.66;;;5.68;100.00
62849;BME280;48941;49.516;8.286;2023-12-22T00:06:24;99122.44;;;5.66;100.00
62849;BME280;48941;49.516;8.286;2023-12-22T00:08:52;99107.69;;;5.63;100.00
62849;BME280;48941;49.516;8.286;2023-12-22T00:11:20;99150.78;;;5.64;100.00
62849;BME280;48941;49.516;8.286;2023-12-22T00:13:48;99132.28;;;5.64;100.00
62849;BME280;48941;49.516;8.286;2023-12-22T00:16:15;99102.25;;;5.65;100.00
62849;BME280;48941;49.516;8.286;2023-12-22T00:18:43;99147.03;;;5.66;100.00
62849;BME280;48941;49.516;8.286;2023-12-22T00:21:13;99111.88;;;5.66;100.00
62849;BME280;48941;49.516;8.286;2023-12-22T00:23:40;99115.13;;;5.69;100.00
62849;BME280;48941;49.516;8.286;2023-12-22T00:26:08;99117.50;;;5.72;100.00
62849;BME280;48941;49.516;8.286;2023-12-22T00:28:36;99114.72;;;5.74;100.00
62849;BME280;48941;49.516;8.286;2023-12-22T00:31:04;99131.41;;;5.74;100.00
62849;BME280;48941;49.516;8.286;2023-12-22T00:33:32;99144.41;;;5.77;100.00
62849;BME280;48941;49.516;8.286;2023-12-22T00:36:00;99137.19;;;5.79;100.00
62849;BME280;48941;49.516;8.286;2023-12-22T00:38:29;99130.22;;;5.78;100.00
62849;BME280;48941;49.516;8.286;2023-12-22T00:40:57;99130.22;;;5.78;100.00
62849;BME280;48941;49.516;8.286;2023-12-22T00:43:25;99126.34;;;5.83;100.00
62849;BME280;48941;49.516;8.286;2023-12-22T00:45:53;99123.59;;;5.84;100.00
62849;BME280;48941;49.516;8.286;2023-12-22T00:48:22;99138.50;;;5.85;100.00
62849;BME280;48941;49.516;8.286;2023-12-22T00:50:50;99123.47;;;5.86;100.00
62849;BME280;48941;49.516;8.286;2023-12-22T00:53:18;99172.00;;;5.85;100.00
62849;BME280;48941;49.516;8.286;2023-12-22T00:55:47;99132.34;;;5.85;100.00
62849;BME280;48941;49.516;8.286;2023-12-22T00:58:15;99163.13;;;5.86;100.00
62849;BME280;48941;49.516;8.286;2023-12-22T01:00:43;99128.88;;;5.84;100.00
62849;BME280;48941;49.516;8.286;2023-12-22T01:03:11;99129.13;;;5.81;100.00
62849;BME280;48941;49.516;8.286;2023-12-22T01:05:39;99123.47;;;5.86;100.00
62849;BME280;48941;49.516;8.286;2023-12-22T01:08:07;99128.63;;;5.98;100.00
62849;BME280;48941;49.516;8.286;2023-12-22T01:10:35;99124.25;;;6.09;100.00
62849;BME280;48941;49.516;8.286;2023-12-22T01:13:04;99102.38;;;6.18;100.00
62849;BME280;48941;49.516;8.286;2023-12-22T01:15:32;99079.75;;;6.25;100.00
62849;BME280;48941;49.516;8.286;2023-12-22T01:18:00;99089.44;;;6.36;100.00
62849;BME280;48941;49.516;8.286;2023-12-22T01:20:28;99097.13;;;6.39;100.00
62849;BME280;48941;49.516;8.286;2023-12-22T01:22:56;99107.44;;;6.42;100.00
62849;BME280;48941;49.516;8.286;2023-12-22T01:25:24;99105.50;;;6.44;100.00
62849;BME280;48941;49.516;8.286;2023-12-22T01:27:51;99085.16;;;6.45;100.00
62849;BME280;48941;49.516;8.286;2023-12-22T01:30:21;99100.22;;;6.44;100.00
62849;BME280;48941;49.516;8.286;2023-12-22T01:32:48;99110.53;;;6.47;100.00
62849;BME280;48941;49.516;8.286;2023-12-22T01:35:16;99100.03;;;6.57;100.00
62849;BME280;48941;49.516;8.286;2023-12-22T01:37:44;99111.53;;;6.67;100.00
62849;BME280;48941;49.516;8.286;2023-12-22T01:40:14;99115.50;;;6.83;100.00
62849;BME280;48941;49.516;8.286;2023-12-22T01:42:42;99121.19;;;6.99;100.00
62849;BME280;48941;49.516;8.286;2023-12-22T01:45:11;99121.38;;;7.07;100.00
62849;BME280;48941;49.516;8.286;2023-12-22T01:47:41;99128.38;;;7.18;100.00
62849;BME280;48941;49.516;8.286;2023-12-22T01:50:10;99123.25;;;7.26;100.00
62849;BME280;48941;49.516;8.286;2023-12-22T01:52:39;99127.44;;;7.29;100.00
62849;BME280;48941;49.516;8.286;2023-12-22T01:55:10;99130.66;;;7.32;100.00
62849;BME280;48941;49.516;8.286;2023-12-22T01:57:39;99131.69;;;7.41;100.00
62849;BME280;48941;49.516;8.286;2023-12-22T02:00:09;99144.78;;;7.43;100.00
62849;BME280;48941;49.516;8.286;2023-12-22T02:02:38;99143.53;;;7.47;100.00
62849;BME280;48941;49.516;8.286;2023-12-22T02:05:10;99150.13;;;7.52;100.00
62849;BME280;48941;49.516;8.286;2023-12-22T02:07:41;99148.03;;;7.56;100.00
62849;BME280;48941;49.516;8.286;2023-12-22T02:10:09;99160.75;;;7.62;100.00
62849;BME280;48941;49.516;8.286;2023-12-22T02:12:37;99152.56;;;7.65;100.00
62849;BME280;48941;49.516;8.286;2023-12-22T02:15:06;99146.25;;;7.66;100.00
62849;BME280;48941;49.516;8.286;2023-12-22T02:17:40;99149.03;;;7.65;100.00
62849;BME280;48941;49.516;8.286;2023-12-22T02:20:13;99152.09;;;7.60;100.00
62849;BME280;48941;49.516;8.286;2023-12-22T02:22:42;99153.09;;;7.59;100.00
62849;BME280;48941;49.516;8.286;2023-12-22T02:25:10;99140.25;;;7.64;100.00
62849;BME280;48941;49.516;8.286;2023-12-22T02:27:40;99145.03;;;7.70;100.00
62849;BME280;48941;49.516;8.286;2023-12-22T02:30:14;99152.13;;;7.70;100.00
62849;BME280;48941;49.516;8.286;2023-12-22T02:32:46;99150.59;;;7.67;100.00
62849;BME280;48941;49.516;8.286;2023-12-22T02:35:17;99154.91;;;7.68;100.00
62849;BME280;48941;49.516;8.286;2023-12-22T02:37:48;99149.63;;;7.68;100.00
62849;BME280;48941;49.516;8.286;2023-12-22T02:40:17;99153.38;;;7.66;100.00
62849;BME280;48941;49.516;8.286;2023-12-22T02:42:46;99158.41;;;7.59;100.00
62849;BME280;48941;49.516;8.286;2023-12-22T02:45:16;99156.28;;;7.53;100.00
62849;BME280;48941;49.516;8.286;2023-12-22T02:47:44;99158.94;;;7.53;100.00
62849;BME280;48941;49.516;8.286;2023-12-22T02:50:13;99154.84;;;7.49;100.00
62849;BME280;48941;49.516;8.286;2023-12-22T02:52:42;99164.72;;;7.47;100.00
62849;BME280;48941;49.516;8.286;2023-12-22T02:55:12;99166.69;;;7.45;100.00
62849;BME280;48941;49.516;8.286;2023-12-22T02:57:39;99157.91;;;7.44;100.00
62849;BME280;48941;49.516;8.286;2023-12-22T03:00:08;99159.19;;;7.50;100.00
62849;BME280;48941;49.516;8.286;2023-12-22T03:02:36;99161.03;;;7.59;100.00
62849;BME280;48941;49.516;8.286;2023-12-22T03:05:05;99157.69;;;7.57;100.00
62849;BME280;48941;49.516;8.286;2023-12-22T03:07:33;99155.16;;;7.55;100.00
62849;BME280;48941;49.516;8.286;2023-12-22T03:10:01;99154.34;;;7.55;100.00
62849;BME280;48941;49.516;8.286;2023-12-22T03:12:30;99155.28;;;7.54;100.00
62849;BME280;48941;49.516;8.286;2023-12-22T03:14:58;99150.28;;;7.51;100.00
62849;BME280;48941;49.516;8.286;2023-12-22T03:17:25;99157.50;;;7.49;100.00
62849;BME280;48941;49.516;8.286;2023-12-22T03:19:53;99150.94;;;7.43;100.00
62849;BME280;48941;49.516;8.286;2023-12-22T03:22:21;99165.72;;;7.46;100.00
62849;BME280;48941;49.516;8.286;2023-12-22T03:24:49;99173.25;;;7.50;100.00
62849;BME280;48941;49.516;8.286;2023-12-22T03:27:16;99176.63;;;7.52;100.00
62849;BME280;48941;49.516;8.286;2023-12-22T03:29:46;99175.25;;;7.58;100.00
62849;BME280;48941;49.516;8.286;2023-12-22T03:32:13;99163.81;;;7.57;100.00
62849;BME280;48941;49.516;8.286;2023-12-22T03:34:41;99180.72;;;7.66;100.00
62849;BME280;48941;49.516;8.286;2023-12-22T03:37:09;99161.91;;;7.69;100.00
62849;BME280;48941;49.516;8.286;2023-12-22T03:39:37;99150.31;;;7.70;100.00
62849;BME280;48941;49.516;8.286;2023-12-22T03:42:04;99134.88;;;7.75;100.00
62849;BME280;48941;49.516;8.286;2023-12-22T03:44:32;99154.28;;;7.86;100.00
62849;BME280;48941;49.516;8.286;2023-12-22T03:47:01;99155.81;;;7.88;100.00
62849;BME280;48941;49.516;8.286;2023-12-22T03:49:29;99146.78;;;7.91;100.00
62849;BME280;48941;49.516;8.286;2023-12-22T03:51:57;99157.38;;;8.01;100.00
62849;BME280;48941;49.516;8.286;2023-12-22T03:54:25;99158.94;;;8.03;100.00
62849;BME280;48941;49.516;8.286;2023-12-22T03:56:53;99165.91;;;8.04;100.00
62849;BME280;48941;49.516;8.286;2023-12-22T03:59:21;99146.50;;;8.04;100.00
62849;BME280;48941;49.516;8.286;2023-12-22T04:01:52;99139.66;;;8.01;100.00
62849;BME280;48941;49.516;8.286;2023-12-22T04:04:23;99156.84;;;8.07;100.00
62849;BME280;48941;49.516;8.286;2023-12-22T04:06:54;99171.06;;;8.06;100.00
62849;BME280;48941;49.516;8.286;2023-12-22T04:09:22;99159.88;;;8.02;100.00
62849;BME280;48941;49.516;8.286;2023-12-22T04:11:49;99167.72;;;8.04;100.00
62849;BME280;48941;49.516;8.286;2023-12-22T04:14:17;99167.00;;;8.02;100.00
62849;BME280;48941;49.516;8.286;2023-12-22T04:16:45;99170.78;;;7.99;100.00
62849;BME280;48941;49.516;8.286;2023-12-22T04:19:13;99173.47;;;8.09;100.00
62849;BME280;48941;49.516;8.286;2023-12-22T04:21:42;99171.06;;;8.06;100.00
62849;BME280;48941;49.516;8.286;2023-12-22T04:24:10;99191.03;;;8.10;100.00
62849;BME280;48941;49.516;8.286;2023-12-22T04:26:38;99199.13;;;8.08;100.00
62849;BME280;48941;49.516;8.286;2023-12-22T04:29:06;99181.69;;;8.06;100.00
62849;BME280;48941;49.516;8.286;2023-12-22T04:31:34;99182.63;;;8.05;100.00
62849;BME280;48941;49.516;8.286;2023-12-22T04:34:01;99192.16;;;8.07;100.00
62849;BME280;48941;49.516;8.286;2023-12-22T04:36:29;99194.94;;;8.06;100.00
62849;BME280;48941;49.516;8.286;2023-12-22T04:38:58;99205.81;;;8.03;100.00
62849;BME280;48941;49.516;8.286;2023-12-22T04:41:26;99221.16;;;7.99;100.00
62849;BME280;48941;49.516;8.286;2023-12-22T04:43:54;99210.69;;;7.97;100.00
62849;BME280;48941;49.516;8.286;2023-12-22T04:46:21;99215.53;;;7.92;100.00
62849;BME280;48941;49.516;8.286;2023-12-22T04:48:49;99218.59;;;7.88;100.00
62849;BME280;48941;49.516;8.286;2023-12-22T04:51:17;99217.03;;;7.75;100.00
62849;BME280;48941;49.516;8.286;2023-12-22T04:53:45;99209.16;;;7.64;100.00
62849;BME280;48941;49.516;8.286;2023-12-22T04:56:14;99226.59;;;7.67;100.00
62849;BME280;48941;49.516;8.286;2023-12-22T04:58:42;99243.31;;;7.57;100.00
62849;BME280;48941;49.516;8.286;2023-12-22T05:01:10;99234.16;;;7.41;100.00
62849;BME280;48941;49.516;8.286;2023-12-22T05:03:38;99229.25;;;7.36;100.00
62849;BME280;48941;49.516;8.286;2023-12-22T05:06:05;99238.38;;;7.22;100.00
62849;BME280;48941;49.516;8.286;2023-12-22T05:08:33;99235.41;;;7.15;100.00
62849;BME280;48941;49.516;8.286;2023-12-22T05:11:02;99238.28;;;7.12;100.00
62849;BME280;48941;49.516;8.286;2023-12-22T05:13:31;99216.53;;;7.09;100.00
62849;BME280;48941;49.516;8.286;2023-12-22T05:15:59;99235.22;;;7.07;100.00
62849;BME280;48941;49.516;8.286;2023-12-22T05:18:27;99253.03;;;7.05;100.00
62849;BME280;48941;49.516;8.286;2023-12-22T05:20:55;99249.53;;;7.05;100.00
62849;BME280;48941;49.516;8.286;2023-12-22T05:23:23;99265.41;;;7.05;100.00
62849;BME280;48941;49.516;8.286;2023-12-22T05:25:52;99266.41;;;7.04;100.00
62849;BME280;48941;49.516;8.286;2023-12-22T05:28:20;99261.94;;;7.04;100.00
62849;BME280;48941;49.516;8.286;2023-12-22T05:30:49;99270.88;;;7.03;100.00
62849;BME280;48941;49.516;8.286;2023-12-22T05:33:17;99258.34;;;7.05;100.00
62849;BME280;48941;49.516;8.286;2023-12-22T05:35:45;99266.41;;;7.04;100.00
62849;BME280;48941;49.516;8.286;2023-12-22T05:38:13;99267.22;;;7.04;100.00
62849;BME280;48941;49.516;8.286;2023-12-22T05:40:41;99263.75;;;7.04;100.00
62849;BME280;48941;49.516;8.286;2023-12-22T05:43:09;99271.28;;;7.08;100.00
62849;BME280;48941;49.516;8.286;2023-12-22T05:45:36;99271.19;;;7.10;100.00
62849;BME280;48941;49.516;8.286;2023-12-22T05:48:06;99269.56;;;7.18;100.00
62849;BME280;48941;49.516;8.286;2023-12-22T05:50:34;99264.84;;;7.22;100.00
62849;BME280;48941;49.516;8.286;2023-12-22T05:53:03;99254.72;;;7.27;100.00
62849;BME280;48941;49.516;8.286;2023-12-22T05:55:30;99266.16;;;7.28;100.00
62849;BME280;48941;49.516;8.286;2023-12-22T05:57:58;99256.38;;;7.28;100.00
62849;BME280;48941;49.516;8.286;2023-12-22T06:00:26;99261.56;;;7.30;100.00
62849;BME280;48941;49.516;8.286;2023-12-22T06:02:54;99279.13;;;7.31;100.00
62849;BME280;48941;49.516;8.286;2023-12-22T06:05:23;99278.28;;;7.30;100.00
62849;BME280;48941;49.516;8.286;2023-12-22T06:07:51;99287.22;;;7.29;100.00
62849;BME280;48941;49.516;8.286;2023-12-22T06:10:19;99281.91;;;7.29;100.00
62849;BME280;48941;49.516;8.286;2023-12-22T06:12:47;99288.75;;;7.32;100.00
62849;BME280;48941;49.516;8.286;2023-12-22T06:15:14;99306.47;;;7.31;100.00
62849;BME280;48941;49.516;8.286;2023-12-22T06:17:42;99292.25;;;7.32;100.00
62849;BME280;48941;49.516;8.286;2023-12-22T06:20:10;99307.06;;;7.35;100.00
62849;BME280;48941;49.516;8.286;2023-12-22T06:22:40;99305.81;;;7.39;100.00
62849;BME280;48941;49.516;8.286;2023-12-22T06:25:08;99314.56;;;7.51;100.00
62849;BME280;48941;49.516;8.286;2023-12-22T06:27:36;99291.00;;;7.57;100.00
62849;BME280;48941;49.516;8.286;2023-12-22T06:30:05;99301.91;;;7.64;100.00
62849;BME280;48941;49.516;8.286;2023-12-22T06:32:34;99305.41;;;7.65;100.00
62849;BME280;48941;49.516;8.286;2023-12-22T06:35:02;99304.56;;;7.64;100.00
62849;BME280;48941;49.516;8.286;2023-12-22T06:37:30;99307.69;;;7.69;100.00
62849;BME280;48941;49.516;8.286;2023-12-22T06:39:59;99310.06;;;7.72;100.00
62849;BME280;48941;49.516;8.286;2023-12-22T06:42:27;99321.25;;;7.76;100.00
62849;BME280;48941;49.516;8.286;2023-12-22T06:44:54;99325.19;;;7.82;100.00
62849;BME280;48941;49.516;8.286;2023-12-22T06:47:22;99327.84;;;7.82;100.00
62849;BME280;48941;49.516;8.286;2023-12-22T06:49:50;99331.19;;;7.84;100.00
62849;BME280;48941;49.516;8.286;2023-12-22T06:52:19;99322.41;;;7.83;100.00
62849;BME280;48941;49.516;8.286;2023-12-22T06:54:47;99333.97;;;7.82;100.00
62849;BME280;48941;49.516;8.286;2023-12-22T06:57:16;99327.97;;;7.80;100.00
62849;BME280;48941;49.516;8.286;2023-12-22T06:59:46;99346.50;;;7.80;100.00
62849;BME280;48941;49.516;8.286;2023-12-22T07:02:16;99337.72;;;7.80;100.00
62849;BME280;48941;49.516;8.286;2023-12-22T07:07:47;99359.06;;;7.78;100.00
62849;BME280;48941;49.516;8.286;2023-12-22T07:10:16;99353.75;;;7.78;100.00
62849;BME280;48941;49.516;8.286;2023-12-22T07:12:45;99353.75;;;7.78;100.00
62849;BME280;48941;49.516;8.286;2023-12-22T07:15:13;99352.66;;;7.81;100.00
62849;BME280;48941;49.516;8.286;2023-12-22T07:17:40;99360.75;;;7.79;100.00
62849;BME280;48941;49.516;8.286;2023-12-22T07:20:10;99367.59;;;7.82;100.00
62849;BME280;48941;49.516;8.286;2023-12-22T07:22:37;99362.28;;;7.82;100.00
62849;BME280;48941;49.516;8.286;2023-12-22T07:25:06;99372.78;;;7.83;100.00
62849;BME280;48941;49.516;8.286;2023-12-22T07:27:34;99377.22;;;7.83;100.00
62849;BME280;48941;49.516;8.286;2023-12-22T07:30:06;99377.09;;;7.84;100.00
62849;BME280;48941;49.516;8.286;2023-12-22T07:32:34;99383.38;;;7.83;100.00
62849;BME280;48941;49.516;8.286;2023-12-22T07:35:02;99391.47;;;7.82;100.00
62849;BME280;48941;49.516;8.286;2023-12-22T07:37:30;99394.00;;;7.83;100.00
62849;BME280;48941;49.516;8.286;2023-12-22T07:39:58;99394.81;;;7.84;100.00
62849;BME280;48941;49.516;8.286;2023-12-22T07:42:26;99411.56;;;7.84;100.00
62849;BME280;48941;49.516;8.286;2023-12-22T07:44:55;99433.75;;;7.83;100.00
62849;BME280;48941;49.516;8.286;2023-12-22T07:47:24;99426.63;;;7.84;100.00
62849;BME280;48941;49.516;8.286;2023-12-22T07:49:52;99411.69;;;7.83;100.00
62849;BME280;48941;49.516;8.286;2023-12-22T07:52:20;99415.03;;;7.85;100.00
62849;BME280;48941;49.516;8.286;2023-12-22T07:54:48;99417.69;;;7.85;100.00
62849;BME280;48941;49.516;8.286;2023-12-22T07:57:16;99426.63;;;7.84;100.00
62849;BME280;48941;49.516;8.286;2023-12-22T07:59:44;99430.13;;;7.84;100.00
62849;BME280;48941;49.516;8.286;2023-12-22T08:02:11;99430.38;;;7.81;100.00
62849;BME280;48941;49.516;8.286;2023-12-22T08:04:41;99433.28;;;7.78;100.00
62849;BME280;48941;49.516;8.286;2023-12-22T08:07:09;99424.50;;;7.77;100.00
62849;BME280;48941;49.516;8.286;2023-12-22T08:09:37;99422.94;;;7.75;100.00
62849;BME280;48941;49.516;8.286;2023-12-22T08:12:05;99421.25;;;7.74;100.00
62849;BME280;48941;49.516;8.286;2023-12-22T08:14:33;99427.38;;;7.74;100.00
62849;BME280;48941;49.516;8.286;2023-12-22T08:17:01;99421.38;;;7.72;100.00
62849;BME280;48941;49.516;8.286;2023-12-22T08:19:29;99419.84;;;7.70;100.00
62849;BME280;48941;49.516;8.286;2023-12-22T08:21:59;99405.03;;;7.67;100.00
62849;BME280;48941;49.516;8.286;2023-12-22T08:24:32;99408.91;;;7.63;100.00
62849;BME280;48941;49.516;8.286;2023-12-22T08:26:59;99410.59;;;7.64;100.00
62849;BME280;48941;49.516;8.286;2023-12-22T08:29:27;99394.81;;;7.63;100.00
62849;BME280;48941;49.516;8.286;2023-12-22T08:31:55;99400.97;;;7.63;100.00
62849;BME280;48941;49.516;8.286;2023-12-22T08:34:23;99410.59;;;7.64;100.00
62849;BME280;48941;49.516;8.286;2023-12-22T08:36:51;99407.81;;;7.66;100.00
62849;BME280;48941;49.516;8.286;2023-12-22T08:39:20;99411.41;;;7.65;100.00
62849;BME280;48941;49.516;8.286;2023-12-22T08:41:51;99406.81;;;7.67;100.00
62849;BME280;48941;49.516;8.286;2023-12-22T08:44:20;99407.41;;;7.70;100.00
62849;BME280;48941;49.516;8.286;2023-12-22T08:46:48;99403.53;;;7.74;100.00
62849;BME280;48941;49.516;8.286;2023-12-22T08:49:16;99411.50;;;7.74;100.00
62849;BME280;48941;49.516;8.286;2023-12-22T08:51:45;99408.72;;;7.76;100.00
62849;BME280;48941;49.516;8.286;2023-12-22T08:54:12;99389.06;;;7.78;100.00
62849;BME280;48941;49.516;8.286;2023-12-22T08:56:42;99399.13;;;7.85;100.00
62849;BME280;48941;49.516;8.286;2023-12-22T08:59:10;99393.72;;;7.86;100.00
62849;BME280;48941;49.516;8.286;2023-12-22T09:01:38;99397.94;;;7.89;100.00
62849;BME280;48941;49.516;8.286;2023-12-22T09:04:09;99394.06;;;7.93;100.00
62849;BME280;48941;49.516;8.286;2023-12-22T09:06:37;99393.91;;;7.94;100.00
62849;BME280;48941;49.516;8.286;2023-12-22T09:09:05;99398.25;;;7.95;100.00
62849;BME280;48941;49.516;8.286;2023-12-22T09:11:34;99397.25;;;7.96;100.00
62849;BME280;48941;49.516;8.286;2023-12-22T09:14:04;99392.53;;;8.00;100.00
62849;BME280;48941;49.516;8.286;2023-12-22T09:16:35;99406.38;;;8.04;100.00
62849;BME280;48941;49.516;8.286;2023-12-22T09:19:03;99397.31;;;8.06;100.00
62849;BME280;48941;49.516;8.286;2023-12-22T09:21:31;99401.38;;;8.10;100.00
62849;BME280;48941;49.516;8.286;2023-12-22T09:23:59;99405.59;;;8.13;100.00
62849;BME280;48941;49.516;8.286;2023-12-22T09:26:26;99404.50;;;8.15;100.00
62849;BME280;48941;49.516;8.286;2023-12-22T09:28:55;99391.09;;;8.17;100.00
62849;BME280;48941;49.516;8.286;2023-12-22T09:31:25;99407.44;;;8.22;100.00
62849;BME280;48941;49.516;8.286;2023-12-22T09:33:53;99399.94;;;8.27;100.00
62849;BME280;48941;49.516;8.286;2023-12-22T09:36:21;99404.16;;;8.30;100.00
62849;BME280;48941;49.516;8.286;2023-12-22T09:38:48;99411.97;;;8.31;100.00
62849;BME280;48941;49.516;8.286;2023-12-22T09:41:16;99410.16;;;8.32;100.00
62849;BME280;48941;49.516;8.286;2023-12-22T09:43:46;99401.66;;;8.38;100.00
62849;BME280;48941;49.516;8.286;2023-12-22T09:46:17;99394.69;;;8.37;100.00
62849;BME280;48941;49.516;8.286;2023-12-22T09:48:47;99394.41;;;8.40;100.00
62849;BME280;48941;49.516;8.286;2023-12-22T09:51:17;99393.06;;;8.46;100.00
62849;BME280;48941;49.516;8.286;2023-12-22T09:53:46;99388.34;;;8.49;100.00
62849;BME280;48941;49.516;8.286;2023-12-22T09:56:15;99385.69;;;8.49;100.00
62849;BME280;48941;49.516;8.286;2023-12-22T09:58:45;99381.91;;;8.52;100.00
62849;BME280;48941;49.516;8.286;2023-12-22T10:01:15;99390.88;;;8.61;100.00
62849;BME280;48941;49.516;8.286;2023-12-22T10:03:43;99389.34;;;8.58;100.00
62849;BME280;48941;49.516;8.286;2023-12-22T10:06:15;99379.56;;;8.58;100.00
62849;BME280;48941;49.516;8.286;2023-12-22T10:08:44;99383.63;;;8.63;100.00
62849;BME280;48941;49.516;8.286;2023-12-22T10:11:14;99377.59;;;8.61;100.00
62849;BME280;48941;49.516;8.286;2023-12-22T10:13:43;99371.34;;;8.62;100.00
62849;BME280;48941;49.516;8.286;2023-12-22T10:16:11;99371.78;;;8.67;100.00
62849;BME280;48941;49.516;8.286;2023-12-22T10:18:39;99372.31;;;8.70;100.00
62849;BME280;48941;49.516;8.286;2023-12-22T10:21:07;99371.38;;;8.71;100.00
62849;BME280;48941;49.516;8.286;2023-12-22T10:23:37;99342.16;;;8.71;100.00
62849;BME280;48941;49.516;8.286;2023-12-22T10:26:04;99341.03;;;8.74;100.00
62849;BME280;48941;49.516;8.286;2023-12-22T10:28:34;99337.13;;;8.78;100.00
62849;BME280;48941;49.516;8.286;2023-12-22T10:31:02;99343.28;;;8.78;100.00
62849;BME280;48941;49.516;8.286;2023-12-22T10:33:33;99330.88;;;8.79;100.00
62849;BME280;48941;49.516;8.286;2023-12-22T10:36:01;99325.56;;;8.79;100.00
62849;BME280;48941;49.516;8.286;2023-12-22T10:38:32;99330.31;;;8.85;100.00
62849;BME280;48941;49.516;8.286;2023-12-22T10:41:02;99332.84;;;8.87;100.00
62849;BME280;48941;49.516;8.286;2023-12-22T10:43:30;99321.91;;;8.90;100.00
62849;BME280;48941;49.516;8.286;2023-12-22T10:45:58;99336.19;;;8.89;100.00
62849;BME280;48941;49.516;8.286;2023-12-22T10:48:26;99330.72;;;8.90;100.00
62849;BME280;48941;49.516;8.286;2023-12-22T10:50:54;99329.47;;;8.94;100.00
62849;BME280;48941;49.516;8.286;2023-12-22T10:53:21;99321.50;;;8.94;100.00
62849;BME280;48941;49.516;8.286;2023-12-22T10:55:51;99333.69;;;8.97;100.00
62849;BME280;48941;49.516;8.286;2023-12-22T10:58:21;99325.28;;;9.02;100.00
62849;BME280;48941;49.516;8.286;2023-12-22T11:00:50;99324.59;;;9.00;100.00
62849;BME280;48941;49.516;8.286;2023-12-22T11:03:23;99310.47;;;8.99;100.00
62849;BME280;48941;49.516;8.286;2023-12-22T11:05:54;99318.84;;;8.94;100.00
62849;BME280;48941;49.516;8.286;2023-12-22T11:08:23;99314.78;;;8.90;100.00
62849;BME280;48941;49.516;8.286;2023-12-22T11:10:57;99313.25;;;8.88;100.00
62849;BME280;48941;49.516;8.286;2023-12-22T11:13:27;99302.22;;;8.83;100.00
62849;BME280;48941;49.516;8.286;2023-12-22T11:15:57;99296.19;;;8.81;100.00
62849;BME280;48941;49.516;8.286;2023-12-22T11:18:25;99305.97;;;8.80;100.00
62849;BME280;48941;49.516;8.286;2023-12-22T11:20:55;99292.56;;;8.82;100.00
62849;BME280;48941;49.516;8.286;2023-12-22T11:23:25;99283.47;;;8.84;100.00
62849;BME280;48941;49.516;8.286;2023-12-22T11:25:53;99288.78;;;8.84;100.00
62849;BME280;48941;49.516;8.286;2023-12-22T11:28:22;99282.50;;;8.85;100.00
62849;BME280;48941;49.516;8.286;2023-12-22T11:30:52;99267.41;;;8.86;100.00
62849;BME280;48941;49.516;8.286;2023-12-22T11:33:25;99265.47;;;8.88;100.00
62849;BME280;48941;49.516;8.286;2023-12-22T11:35:55;99249.53;;;8.88;100.00
62849;BME280;48941;49.516;8.286;2023-12-22T11:38:23;99239.59;;;8.90;100.00
62849;BME280;48941;49.516;8.286;2023-12-22T11:40:52;99244.78;;;8.91;100.00
62849;BME280;48941;49.516;8.286;2023-12-22T11:43:21;99237.50;;;8.93;100.00
62849;BME280;48941;49.516;8.286;2023-12-22T11:45:49;99226.31;;;9.00;100.00
62849;BME280;48941;49.516;8.286;2023-12-22T11:48:19;99227.16;;;9.00;100.00
62849;BME280;48941;49.516;8.286;2023-12-22T11:50:47;99225.34;;;9.01;100.00
62849;BME280;48941;49.516;8.286;2023-12-22T11:53:19;99222.41;;;9.04;100.00
62849;BME280;48941;49.516;8.286;2023-12-22T11:55:57;99215.81;;;9.08;100.00
62849;BME280;48941;49.516;8.286;2023-12-22T11:58:33;99207.03;;;9.07;100.00
62849;BME280;48941;49.516;8.286;2023-12-22T12:01:02;99209.25;;;9.12;100.00
62849;BME280;48941;49.516;8.286;2023-12-22T12:03:32;99186.72;;;9.16;100.00
62849;BME280;48941;49.516;8.286;2023-12-22T12:06:30;99193.72;;;9.17;100.00
62849;BME280;48941;49.516;8.286;2023-12-22T12:09:00;99182.94;;;9.18;100.00
62849;BME280;48941;49.516;8.286;2023-12-22T12:12:08;99186.69;;;9.26;100.00
62849;BME280;48941;49.516;8.286;2023-12-22T12:14:41;99178.88;;;9.24;100.00
62849;BME280;48941;49.516;8.286;2023-12-22T12:17:09;99181.38;;;9.26;100.00
62849;BME280;48941;49.516;8.286;2023-12-22T12:19:39;99173.16;;;9.29;100.00
62849;BME280;48941;49.516;8.286;2023-12-22T12:22:09;99163.47;;;9.28;100.00
62849;BME280;48941;49.516;8.286;2023-12-22T12:24:39;99143.38;;;9.25;100.00
62849;BME280;48941;49.516;8.286;2023-12-22T12:27:07;99151.19;;;9.27;100.00
62849;BME280;48941;49.516;8.286;2023-12-22T12:29:35;99140.56;;;9.27;100.00
62849;BME280;48941;49.516;8.286;2023-12-22T12:32:04;99152.16;;;9.26;100.00
62849;BME280;48941;49.516;8.286;2023-12-22T12:34:33;99154.97;;;9.24;100.00
62849;BME280;48941;49.516;8.286;2023-12-22T12:37:03;99158.88;;;9.20;100.00
62849;BME280;48941;49.516;8.286;2023-12-22T12:39:34;99171.34;;;9.20;100.00
62849;BME280;48941;49.516;8.286;2023-12-22T12:42:06;99168.81;;;9.18;100.00
62849;BME280;48941;49.516;8.286;2023-12-22T12:44:35;99176.41;;;9.13;100.00
62849;BME280;48941;49.516;8.286;2023-12-22T12:47:11;99169.41;;;9.12;100.00
62849;BME280;48941;49.516;8.286;2023-12-22T12:49:40;99177.66;;;9.09;100.00
62849;BME280;48941;49.516;8.286;2023-12-22T12:52:13;99185.09;;;9.05;100.00
62849;BME280;48941;49.516;8.286;2023-12-22T12:54:41;99172.94;;;9.03;100.00
62849;BME280;48941;49.516;8.286;2023-12-22T12:57:14;99176.41;;;9.03;100.00
62849;BME280;48941;49.516;8.286;2023-12-22T12:59:45;99158.78;;;9.02;100.00
62849;BME280;48941;49.516;8.286;2023-12-22T13:02:14;99164.78;;;9.04;100.00
62849;BME280;48941;49.516;8.286;2023-12-22T13:04:42;99168.00;;;9.08;100.00
62849;BME280;48941;49.516;8.286;2023-12-22T13:07:10;99159.78;;;9.11;100.00
62849;BME280;48941;49.516;8.286;2023-12-22T13:09:41;99156.53;;;9.17;100.00
62849;BME280;48941;49.516;8.286;2023-12-22T13:12:09;99165.75;;;9.23;100.00